Time;durP1;ratioP1;P1;durP2;ratioP2;P2;SDS_P1;SDS_P2;PMS_P1;PMS_P2;Temp;Humidity;BMP_temperature;BMP_pressure;BME280_temperature;BME280_humidity;BME280_pressure;Samples;Min_cycle;Max_cycle;Signal;HPM_P1;HPM_P2
2022/07/22 00:00:13;;;;;;;9.13;7.53;;;19.40;99.90;;;;;;4979985;28;20515;-84
2022/07/22 00:02:43;;;;;;;8.10;7.00;;;19.30;99.90;;;;;;5000539;28;20468;-86
2022/07/22 00:05:10;;;;;;;7.27;6.40;;;19.30;99.90;;;;;;4995680;28;20506;-89
2022/07/22 00:07:38;;;;;;;10.90;7.40;;;19.40;99.90;;;;;;4989811;28;20456;-86
2022/07/22 00:10:10;;;;;;;8.50;6.23;;;19.30;99.90;;;;;;4986052;28;20490;-85
2022/07/22 00:12:39;;;;;;;6.73;6.03;;;19.30;99.90;;;;;;4981765;28;20475;-84
2022/07/22 00:15:09;;;;;;;6.67;5.93;;;19.30;99.90;;;;;;4981125;28;21020;-86
2022/07/22 00:17:36;;;;;;;8.23;5.63;;;19.30;99.90;;;;;;5005574;28;20455;-85
2022/07/22 00:20:05;;;;;;;7.83;5.97;;;19.40;99.90;;;;;;4974632;28;21021;-85
2022/07/22 00:22:32;;;;;;;6.10;5.50;;;19.30;99.90;;;;;;4998996;28;20586;-85
2022/07/22 00:24:59;;;;;;;7.97;4.93;;;19.40;99.90;;;;;;4980463;28;20506;-86
2022/07/22 00:27:27;;;;;;;7.40;4.87;;;19.30;99.90;;;;;;4975795;28;20987;-84
2022/07/22 00:29:57;;;;;;;8.80;5.30;;;19.30;99.90;;;;;;4980243;28;20479;-85
2022/07/22 00:32:26;;;;;;;7.60;4.60;;;19.40;99.90;;;;;;4974025;28;20563;-83
2022/07/22 00:34:54;;;;;;;7.47;5.13;;;19.30;99.90;;;;;;4977653;28;20474;-85
2022/07/22 00:37:35;;;;;;;7.47;4.70;;;19.20;99.90;;;;;;4898535;29;20474;-83
2022/07/22 00:40:11;;;;;;;7.43;4.40;;;19.20;99.90;;;;;;4913350;29;20495;-85
2022/07/22 00:42:47;;;;;;;5.43;4.20;;;19.20;99.90;;;;;;4915639;29;20454;-84
2022/07/22 00:45:14;;;;;;;4.73;3.97;;;19.20;99.90;;;;;;4917403;29;20493;-85
2022/07/22 00:47:44;;;;;;;4.90;4.10;;;19.20;99.90;;;;;;4915460;29;20462;-83
2022/07/22 00:50:40;;;;;;;10.67;4.87;;;19.20;99.90;;;;;;4916280;29;20483;-86
2022/07/22 00:53:07;;;;;;;5.07;4.57;;;19.20;99.90;;;;;;4871410;29;20504;-86
2022/07/22 00:55:46;;;;;;;10.53;4.73;;;19.30;99.90;;;;;;4919525;29;20854;-85
2022/07/22 00:58:23;;;;;;;;;;;;;;;;;;;;;
2022/07/22 01:01:07;;;;;;;5.70;4.57;;;19.30;99.90;;;;;;4884515;29;20474;-85
2022/07/22 01:03:34;;;;;;;5.40;4.90;;;19.30;99.90;;;;;;4906485;29;20479;-85
2022/07/22 01:06:38;;;;;;;5.83;4.07;;;19.30;99.90;;;;;;4915363;29;20574;-86
2022/07/22 01:09:05;;;;;;;5.07;4.27;;;19.30;99.90;;;;;;4979740;28;20470;-85
2022/07/22 01:11:31;;;;;;;6.93;3.93;;;19.30;99.90;;;;;;4973987;28;20469;-84
2022/07/22 01:13:58;;;;;;;4.73;4.03;;;19.30;99.90;;;;;;4995499;28;20458;-83
2022/07/22 01:16:25;;;;;;;5.40;4.47;;;19.30;99.90;;;;;;5010478;28;20534;-85
2022/07/22 01:18:52;;;;;;;9.63;4.10;;;19.30;99.90;;;;;;4977634;28;20447;-85
2022/07/22 01:21:23;;;;;;;6.10;4.70;;;19.30;99.90;;;;;;4973820;28;20515;-85
2022/07/22 01:23:59;;;;;;;7.33;4.90;;;19.30;99.90;;;;;;5001230;28;20461;-82
2022/07/22 01:26:33;;;;;;;7.33;5.20;;;19.20;99.90;;;;;;4997701;28;20545;-84
2022/07/22 01:29:04;;;;;;;6.10;4.83;;;19.20;99.90;;;;;;4978438;28;22185;-82
2022/07/22 01:31:55;;;;;;;7.90;4.77;;;19.20;99.90;;;;;;4987589;28;20505;-84
2022/07/22 01:34:22;;;;;;;5.47;5.00;;;19.20;99.90;;;;;;4985571;28;20817;-85
2022/07/22 01:36:49;;;;;;;8.90;5.67;;;19.20;99.90;;;;;;4990363;28;20466;-84
2022/07/22 01:39:37;;;;;;;9.57;5.33;;;19.20;99.90;;;;;;5011180;28;20474;-86
2022/07/22 01:42:04;;;;;;;7.90;5.27;;;19.30;99.90;;;;;;4988471;28;20520;-86
2022/07/22 01:44:42;;;;;;;6.97;4.80;;;19.30;99.90;;;;;;4980635;28;20454;-83
2022/07/22 01:47:12;;;;;;;9.90;7.00;;;19.30;99.90;;;;;;4988185;28;20446;-88
2022/07/22 01:49:45;;;;;;;6.63;5.03;;;19.30;99.90;;;;;;5068943;23;20470;-84
2022/07/22 01:52:12;;;;;;;7.97;5.50;;;19.30;99.90;;;;;;4996891;28;20846;-85
2022/07/22 01:54:47;;;;;;;6.17;5.03;;;19.30;99.90;;;;;;4998696;28;20459;-84
2022/07/22 01:57:48;;;;;;;9.67;5.73;;;19.30;99.90;;;;;;5000402;28;20450;-85
2022/07/22 02:00:16;;;;;;;7.70;5.13;;;19.40;99.90;;;;;;4998375;28;20482;-86
2022/07/22 02:02:43;;;;;;;6.67;5.00;;;19.40;99.90;;;;;;4978799;28;20455;-87
2022/07/22 02:05:15;;;;;;;7.40;5.63;;;19.40;99.90;;;;;;4998328;28;21003;-85
2022/07/22 02:07:42;;;;;;;7.60;5.30;;;19.40;99.90;;;;;;4977837;28;20453;-84
2022/07/22 02:10:09;;;;;;;7.30;5.80;;;19.40;99.90;;;;;;4985670;28;20490;-85
2022/07/22 02:12:38;;;;;;;6.73;5.40;;;19.40;99.90;;;;;;4995534;28;20520;-86
2022/07/22 02:15:12;;;;;;;8.60;5.70;;;19.40;99.90;;;;;;5006352;28;20494;-85
2022/07/22 02:17:39;;;;;;;8.63;5.33;;;19.40;99.90;;;;;;4990364;28;20435;-84
2022/07/22 02:20:06;;;;;;;7.33;6.00;;;19.40;99.90;;;;;;5000201;28;20487;-87
2022/07/22 02:22:33;;;;;;;10.60;6.00;;;19.40;99.90;;;;;;4997907;28;20469;-85
2022/07/22 02:25:00;;;;;;;11.77;6.33;;;19.30;99.90;;;;;;4996055;28;20720;-84
2022/07/22 02:27:26;;;;;;;9.57;6.70;;;19.30;99.90;;;;;;4996397;28;20457;-85
2022/07/22 02:29:53;;;;;;;5.80;5.30;;;19.30;99.90;;;;;;4986660;28;20470;-86
2022/07/22 02:32:29;;;;;;;9.73;5.30;;;19.30;99.90;;;;;;4994819;28;20454;-83
2022/07/22 02:34:57;;;;;;;8.17;6.10;;;19.20;99.90;;;;;;4994327;28;20455;-85
2022/07/22 02:37:27;;;;;;;7.93;6.77;;;19.20;99.90;;;;;;4991945;28;20466;-85
2022/07/22 02:40:00;;;;;;;8.90;6.87;;;19.20;99.90;;;;;;4982789;28;20537;-84
2022/07/22 02:42:53;;;;;;;6.77;6.13;;;19.20;99.90;;;;;;4979980;28;20479;-85
2022/07/22 02:45:23;;;;;;;10.57;7.07;;;19.20;99.90;;;;;;4981987;28;20490;-84
2022/07/22 02:47:53;;;;;;;7.47;6.60;;;19.10;99.90;;;;;;4997119;28;20459;-85
2022/07/22 02:50:29;;;;;;;9.23;6.87;;;19.20;99.90;;;;;;4977576;28;20489;-84
2022/07/22 02:52:56;;;;;;;7.17;6.30;;;19.20;99.90;;;;;;4978637;28;20451;-85
2022/07/22 02:55:39;;;;;;;11.07;6.57;;;19.20;99.90;;;;;;4986433;28;20456;-81
2022/07/22 02:58:12;;;;;;;8.60;6.53;;;19.30;99.90;;;;;;4992508;28;20459;-88
2022/07/22 03:00:39;;;;;;;8.93;6.60;;;19.20;99.90;;;;;;5005427;28;21009;-86
2022/07/22 03:03:14;;;;;;;7.73;7.03;;;19.20;99.90;;;;;;4985540;28;20557;-84
2022/07/22 03:05:41;;;;;;;7.73;6.90;;;19.20;99.90;;;;;;4979795;28;20519;-85
2022/07/22 03:08:08;;;;;;;8.70;7.30;;;19.20;99.90;;;;;;4974363;28;20484;-84
2022/07/22 03:10:53;;;;;;;8.87;6.67;;;19.20;99.90;;;;;;4977457;28;20555;-83
2022/07/22 03:13:38;;;;;;;11.30;6.93;;;19.20;99.90;;;;;;4993017;28;20975;-84
2022/07/22 03:16:11;;;;;;;11.00;7.53;;;19.20;99.90;;;;;;4974488;28;20466;-84
2022/07/22 03:18:56;;;;;;;9.27;7.00;;;19.20;99.90;;;;;;4971743;28;20467;-85
2022/07/22 03:21:34;;;;;;;7.30;6.57;;;19.20;99.90;;;;;;4979967;28;20479;-85
2022/07/22 03:24:32;;;;;;;10.53;7.27;;;19.10;99.90;;;;;;4986530;28;20515;-85
2022/07/22 03:26:59;;;;;;;8.83;6.83;;;19.00;99.90;;;;;;4995765;28;21017;-85
2022/07/22 03:29:39;;;;;;;;;;;;;;;;;;;;;
2022/07/22 03:32:16;;;;;;;7.77;6.43;;;19.00;99.90;;;;;;5006855;28;20459;-85
2022/07/22 03:34:52;;;;;;;7.30;6.60;;;19.10;99.90;;;;;;4989744;28;20448;-85
2022/07/22 03:37:28;;;;;;;11.87;6.67;;;19.00;99.90;;;;;;5003839;28;20455;-85
2022/07/22 03:39:57;;;;;;;6.80;6.20;;;19.10;99.90;;;;;;4983696;28;20478;-87
2022/07/22 03:42:24;;;;;;;7.87;6.50;;;19.00;99.90;;;;;;4983033;28;20463;-86
2022/07/22 03:45:01;;;;;;;11.20;6.50;;;19.10;99.90;;;;;;4988611;28;20574;-85
2022/07/22 03:47:28;;;;;;;10.50;6.07;;;19.20;99.90;;;;;;4979202;28;20482;-85
2022/07/22 03:49:56;;;;;;;7.27;6.13;;;19.20;99.90;;;;;;4989672;28;20490;-87
2022/07/22 03:52:29;;;;;;;8.73;6.27;;;19.20;99.90;;;;;;4977221;28;20463;-85
2022/07/22 03:54:56;;;;;;;8.83;6.10;;;19.20;99.90;;;;;;4994653;28;20811;-85
2022/07/22 03:57:53;;;;;;;6.43;5.83;;;19.20;99.90;;;;;;4996859;28;20486;-85
2022/07/22 04:00:43;;;;;;;10.97;6.23;;;19.20;99.90;;;;;;4938078;28;20905;-85
2022/07/22 04:03:13;;;;;;;7.63;6.93;;;19.20;99.90;;;;;;4990587;28;20688;-87
2022/07/22 04:05:43;;;;;;;8.40;7.03;;;19.50;99.90;;;;;;4981098;28;20479;-86
2022/07/22 04:08:41;;;;;;;8.10;7.00;;;19.70;99.90;;;;;;4975956;28;20528;-85
2022/07/22 04:11:11;;;;;;;7.63;6.47;;;19.90;99.90;;;;;;4965335;28;20914;-84
2022/07/22 04:13:38;;;;;;;8.53;7.33;;;19.80;99.90;;;;;;4983771;28;21004;-87
2022/07/22 04:16:05;;;;;;;7.70;6.67;;;19.60;99.90;;;;;;4995328;28;20463;-86
2022/07/22 04:18:34;;;;;;;6.63;6.00;;;19.40;99.90;;;;;;4977773;28;20473;-85
2022/07/22 04:21:11;;;;;;;9.10;6.80;;;19.30;99.90;;;;;;4977493;28;20475;-85
2022/07/22 04:23:47;;;;;;;6.97;6.37;;;19.20;99.90;;;;;;4976828;28;20448;-86
2022/07/22 04:26:25;;;;;;;9.93;6.90;;;19.10;99.90;;;;;;4981808;28;20509;-86
2022/07/22 04:28:51;;;;;;;7.00;6.17;;;19.10;99.90;;;;;;4993164;28;20516;-84
2022/07/22 04:31:19;;;;;;;7.63;6.83;;;19.20;99.90;;;;;;4986111;28;20460;-83
2022/07/22 04:33:48;;;;;;;7.93;5.57;;;19.40;99.90;;;;;;4963985;28;20436;-86
2022/07/22 04:36:16;;;;;;;7.83;6.40;;;19.30;99.90;;;;;;4982090;28;20473;-86
2022/07/22 04:38:42;;;;;;;9.90;6.30;;;19.20;99.90;;;;;;5004564;28;20451;-86
2022/07/22 04:41:09;;;;;;;6.83;6.20;;;19.20;99.90;;;;;;4990878;28;20518;-86
2022/07/22 04:43:55;;;;;;;5.97;5.37;;;19.20;99.90;;;;;;4990815;28;20451;-88
2022/07/22 04:46:29;;;;;;;9.00;6.50;;;19.20;99.90;;;;;;4986879;28;20500;-87
2022/07/22 04:48:56;;;;;;;7.37;6.20;;;19.20;99.90;;;;;;4985517;28;20453;-86
2022/07/22 04:51:24;;;;;;;8.10;6.00;;;19.20;99.90;;;;;;4995013;28;20590;-87
2022/07/22 04:53:51;;;;;;;7.03;6.40;;;19.20;99.90;;;;;;4988004;28;20459;-86
2022/07/22 04:56:18;;;;;;;7.17;5.90;;;19.30;99.90;;;;;;4991240;28;20459;-86
2022/07/22 04:58:45;;;;;;;8.13;6.17;;;19.30;99.90;;;;;;4999576;28;20451;-85
2022/07/22 05:01:12;;;;;;;6.70;6.10;;;19.30;99.90;;;;;;5002091;28;20467;-85
2022/07/22 05:03:40;;;;;;;8.50;6.10;;;19.20;99.90;;;;;;5010624;28;20451;-86
2022/07/22 05:06:07;;;;;;;8.20;6.40;;;19.30;99.90;;;;;;4999439;28;20475;-86
2022/07/22 05:08:34;;;;;;;7.83;6.90;;;19.30;99.90;;;;;;5015524;28;20431;-89
2022/07/22 05:11:01;;;;;;;7.70;6.97;;;19.30;99.90;;;;;;5021105;28;20491;-88
2022/07/22 05:13:28;;;;;;;12.60;8.17;;;19.40;99.90;;;;;;4994034;28;20436;-86
2022/07/22 05:15:55;;;;;;;10.80;8.97;;;19.40;99.90;;;;;;4988189;28;20474;-88
2022/07/22 05:18:22;;;;;;;8.40;7.60;;;19.30;99.90;;;;;;4988146;28;20498;-89
2022/07/22 05:20:49;;;;;;;8.40;7.43;;;19.30;99.90;;;;;;5014869;28;20947;-87
2022/07/22 05:23:16;;;;;;;8.30;6.77;;;19.40;99.90;;;;;;4994792;28;20455;-87
2022/07/22 05:25:46;;;;;;;10.43;7.93;;;19.50;99.90;;;;;;4997547;28;20427;-85
2022/07/22 05:28:13;;;;;;;10.10;7.57;;;19.40;99.90;;;;;;4982740;28;20470;-86
2022/07/22 05:30:40;;;;;;;9.27;8.37;;;19.30;99.90;;;;;;4992883;28;20478;-84
2022/07/22 05:33:06;;;;;;;10.27;9.27;;;19.30;99.90;;;;;;4985334;28;20611;-85
2022/07/22 05:35:33;;;;;;;13.70;9.93;;;19.30;99.90;;;;;;4987178;28;20940;-85
2022/07/22 05:38:00;;;;;;;10.93;8.80;;;19.30;99.90;;;;;;4975314;28;20455;-85
2022/07/22 05:40:28;;;;;;;9.43;8.50;;;19.30;99.90;;;;;;5003547;28;20467;-85
2022/07/22 05:42:55;;;;;;;10.63;8.67;;;19.30;99.90;;;;;;4980837;28;20479;-85
2022/07/22 05:45:22;;;;;;;8.03;7.33;;;19.30;99.90;;;;;;4991856;28;20458;-85
2022/07/22 05:47:49;;;;;;;10.50;7.90;;;19.30;99.90;;;;;;4989065;28;20471;-85
2022/07/22 05:50:15;;;;;;;11.97;8.03;;;19.30;99.90;;;;;;4984741;28;20550;-86
2022/07/22 05:52:42;;;;;;;9.40;8.60;;;19.30;99.90;;;;;;4983705;28;20449;-87
2022/07/22 05:55:09;;;;;;;9.67;8.67;;;19.30;99.90;;;;;;5003961;28;20431;-85
2022/07/22 05:57:36;;;;;;;10.33;9.30;;;19.30;99.90;;;;;;4985408;28;20444;-85
2022/07/22 06:00:05;;;;;;;9.43;7.63;;;19.30;99.90;;;;;;4986401;28;20468;-85
2022/07/22 06:02:32;;;;;;;8.80;6.97;;;19.50;99.90;;;;;;5001529;28;20466;-85
2022/07/22 06:05:02;;;;;;;7.73;7.00;;;19.90;99.90;;;;;;4978129;28;20459;-86
2022/07/22 06:07:29;;;;;;;8.43;7.30;;;19.80;99.90;;;;;;4994580;28;20478;-86
2022/07/22 06:09:56;;;;;;;7.80;7.00;;;19.70;99.90;;;;;;4982625;28;20477;-87
2022/07/22 06:12:25;;;;;;;7.43;6.73;;;19.80;99.90;;;;;;4998729;28;20455;-88
2022/07/22 06:14:54;;;;;;;9.70;6.87;;;19.70;99.90;;;;;;4979382;28;20424;-84
2022/07/22 06:17:21;;;;;;;9.70;8.57;;;20.20;99.90;;;;;;4985818;28;20494;-88
2022/07/22 06:19:48;;;;;;;10.27;7.30;;;20.20;99.90;;;;;;5003038;28;20470;-85
2022/07/22 06:22:17;;;;;;;8.43;7.63;;;20.20;99.90;;;;;;4991288;28;20451;-87
2022/07/22 06:24:44;;;;;;;7.90;7.10;;;19.90;99.90;;;;;;4990515;28;20462;-86
2022/07/22 06:27:11;;;;;;;8.93;8.03;;;19.60;99.90;;;;;;5005304;28;20493;-88
2022/07/22 06:29:40;;;;;;;8.80;7.33;;;19.60;99.90;;;;;;5006905;28;20546;-87
2022/07/22 06:32:07;;;;;;;7.63;6.93;;;19.80;99.90;;;;;;4993972;28;20455;-87
2022/07/22 06:34:34;;;;;;;11.33;9.50;;;19.70;99.90;;;;;;4983887;28;20459;-86
2022/07/22 06:37:01;;;;;;;10.50;7.60;;;19.50;99.90;;;;;;4988420;28;20468;-86
2022/07/22 06:39:28;;;;;;;9.10;7.47;;;19.50;99.90;;;;;;5001197;28;20460;-85
2022/07/22 06:41:55;;;;;;;8.07;7.20;;;19.70;99.90;;;;;;5016387;28;20454;-86
2022/07/22 06:44:22;;;;;;;10.53;7.00;;;19.60;99.90;;;;;;4985442;28;20532;-88
2022/07/22 06:46:49;;;;;;;13.13;9.40;;;19.60;99.90;;;;;;5009583;28;20513;-87
2022/07/22 06:49:16;;;;;;;11.80;9.33;;;19.90;99.90;;;;;;4984123;28;20483;-90
2022/07/22 06:51:44;;;;;;;12.23;10.97;;;20.00;99.90;;;;;;4982877;28;20464;-88
2022/07/22 06:54:11;;;;;;;9.13;8.23;;;19.80;99.90;;;;;;4988104;28;20483;-89
2022/07/22 06:56:38;;;;;;;9.03;8.13;;;19.70;99.90;;;;;;5007356;28;20502;-87
2022/07/22 06:59:07;;;;;;;8.17;7.33;;;19.90;99.90;;;;;;4997983;28;20453;-90
2022/07/22 07:01:34;;;;;;;6.90;6.30;;;19.90;99.90;;;;;;4995780;28;20447;-90
2022/07/22 07:04:01;;;;;;;6.57;5.93;;;20.10;99.90;;;;;;4986129;28;20534;-87
2022/07/22 07:06:28;;;;;;;6.80;6.10;;;20.20;99.90;;;;;;4985190;28;20558;-87
2022/07/22 07:08:57;;;;;;;9.93;8.93;;;20.20;99.90;;;;;;4989813;28;20448;-85
2022/07/22 07:11:24;;;;;;;9.97;7.47;;;20.20;99.90;;;;;;5009066;28;20451;-86
2022/07/22 07:13:51;;;;;;;6.33;5.57;;;19.90;99.90;;;;;;4996548;28;20461;-88
2022/07/22 07:16:18;;;;;;;6.77;5.77;;;19.70;99.90;;;;;;5005084;28;20461;-85
2022/07/22 07:18:45;;;;;;;9.83;6.20;;;20.00;99.90;;;;;;5001540;28;20444;-87
2022/07/22 07:21:11;;;;;;;7.40;5.63;;;19.90;99.90;;;;;;4997704;28;20451;-87
2022/07/22 07:23:38;;;;;;;6.93;6.23;;;19.70;99.90;;;;;;4990776;28;20466;-86
2022/07/22 07:26:06;;;;;;;6.90;5.50;;;19.80;99.90;;;;;;4984811;28;20448;-86
2022/07/22 07:28:33;;;;;;;6.20;5.53;;;20.00;99.90;;;;;;4991163;28;20480;-86
2022/07/22 07:30:59;;;;;;;6.70;4.90;;;19.90;99.90;;;;;;4984269;28;20500;-86
2022/07/22 07:33:27;;;;;;;6.60;4.90;;;19.70;99.90;;;;;;5002201;28;21183;-86
2022/07/22 07:35:54;;;;;;;6.40;5.13;;;19.60;99.90;;;;;;4995087;28;20460;-88
2022/07/22 07:38:34;;;;;;;6.80;5.90;;;19.90;99.90;;;;;;4992714;28;20452;-86
2022/07/22 07:41:01;;;;;;;5.37;4.87;;;19.80;99.90;;;;;;4986222;28;20509;-88
2022/07/22 07:43:27;;;;;;;5.10;4.17;;;19.70;99.90;;;;;;4987763;28;20468;-86
2022/07/22 07:45:54;;;;;;;9.23;4.67;;;19.70;99.90;;;;;;4982627;28;20436;-88
2022/07/22 07:48:21;;;;;;;6.13;4.60;;;19.70;99.90;;;;;;4987860;28;20452;-87
2022/07/22 07:50:48;;;;;;;6.80;4.57;;;19.70;99.90;;;;;;4984210;28;20589;-89
2022/07/22 07:53:16;;;;;;;5.13;3.90;;;19.70;99.90;;;;;;4986046;28;20451;-88
2022/07/22 07:55:44;;;;;;;7.90;4.97;;;19.80;99.90;;;;;;5001442;28;20464;-87
2022/07/22 07:58:19;;;;;;;6.03;4.03;;;19.80;99.90;;;;;;4992723;28;20456;-88
2022/07/22 08:00:46;;;;;;;5.20;4.10;;;19.90;99.90;;;;;;4975162;28;20489;-86
2022/07/22 08:03:12;;;;;;;5.23;4.73;;;20.20;99.90;;;;;;4986559;28;20451;-86
2022/07/22 08:05:40;;;;;;;6.10;4.43;;;20.10;99.90;;;;;;4979880;28;20456;-87
2022/07/22 08:08:08;;;;;;;4.90;4.03;;;20.10;99.90;;;;;;4986043;28;21044;-87
2022/07/22 08:10:37;;;;;;;7.30;6.33;;;20.10;99.90;;;;;;4977091;28;20495;-86
2022/07/22 08:13:26;;;;;;;5.00;4.50;;;20.00;99.90;;;;;;4982885;28;20925;-86
2022/07/22 08:15:55;;;;;;;5.47;4.97;;;19.90;99.90;;;;;;5006261;28;20439;-88
2022/07/22 08:18:22;;;;;;;6.23;5.50;;;19.90;99.90;;;;;;4975090;28;20452;-85
2022/07/22 08:20:50;;;;;;;6.77;6.07;;;19.90;99.90;;;;;;4990373;28;20531;-85
2022/07/22 08:23:19;;;;;;;8.03;6.43;;;20.40;99.90;;;;;;4979827;28;20454;-85
2022/07/22 08:25:52;;;;;;;7.03;6.33;;;20.40;99.90;;;;;;4970215;28;20456;-86
2022/07/22 08:28:19;;;;;;;7.23;6.53;;;20.00;99.90;;;;;;4986032;28;20493;-87
2022/07/22 08:30:46;;;;;;;7.20;6.50;;;20.10;99.90;;;;;;4983248;28;20471;-86
2022/07/22 08:33:13;;;;;;;7.33;6.47;;;19.90;99.90;;;;;;5000951;28;20526;-87
2022/07/22 08:35:40;;;;;;;7.27;5.73;;;20.10;99.90;;;;;;5004094;28;20453;-87
2022/07/22 08:38:07;;;;;;;8.20;6.80;;;20.30;99.90;;;;;;4978610;28;20446;-86
2022/07/22 08:40:35;;;;;;;8.40;7.13;;;20.20;99.90;;;;;;4974564;28;20534;-87
2022/07/22 08:43:03;;;;;;;9.53;7.07;;;20.30;99.90;;;;;;4984597;28;20455;-86
2022/07/22 08:45:32;;;;;;;7.67;6.80;;;20.20;99.90;;;;;;4986638;28;20464;-90
2022/07/22 08:48:02;;;;;;;9.83;6.67;;;20.40;99.90;;;;;;4987865;28;20925;-84
2022/07/22 08:50:31;;;;;;;10.67;6.97;;;20.40;99.90;;;;;;4983279;28;20554;-86
2022/07/22 08:52:58;;;;;;;8.27;7.47;;;20.40;99.90;;;;;;4990938;28;20447;-85
2022/07/22 08:55:25;;;;;;;7.80;7.00;;;20.40;99.90;;;;;;4977929;28;20447;-87
2022/07/22 08:57:52;;;;;;;10.30;7.70;;;20.30;99.90;;;;;;5008204;28;20474;-85
2022/07/22 09:00:21;;;;;;;8.57;7.20;;;20.50;99.90;;;;;;5004344;28;20482;-86
2022/07/22 09:02:49;;;;;;;8.90;7.13;;;20.70;99.90;;;;;;4980635;28;20493;-85
2022/07/22 09:05:17;;;;;;;8.60;7.27;;;20.80;99.90;;;;;;4976169;28;20456;-86
2022/07/22 09:07:58;;;;;;;7.70;7.00;;;20.60;99.90;;;;;;4983832;28;20466;-87
2022/07/22 09:10:32;;;;;;;8.80;6.77;;;20.70;99.90;;;;;;4989047;28;20499;-87
2022/07/22 09:13:01;;;;;;;11.10;7.73;;;20.70;99.90;;;;;;4993247;28;20536;-86
2022/07/22 09:15:32;;;;;;;7.63;6.80;;;20.90;99.90;;;;;;4973764;28;20448;-87
2022/07/22 09:18:00;;;;;;;16.07;13.43;;;21.00;99.90;;;;;;4982538;28;20807;-87
2022/07/22 09:20:30;;;;;;;9.10;7.10;;;21.00;99.90;;;;;;4985468;28;20498;-89
2022/07/22 09:22:57;;;;;;;8.80;6.93;;;20.90;99.90;;;;;;5007223;28;20519;-89
2022/07/22 09:25:29;;;;;;;8.03;7.23;;;21.10;99.90;;;;;;4998446;28;20534;-86
2022/07/22 09:28:06;;;;;;;9.47;7.77;;;21.50;99.90;;;;;;4981949;28;20482;-87
2022/07/22 09:30:38;;;;;;;8.90;7.70;;;21.60;99.60;;;;;;4982237;28;20529;-88
2022/07/22 09:33:08;;;;;;;7.87;7.17;;;21.90;99.00;;;;;;4979519;28;20475;-86
2022/07/22 09:35:37;;;;;;;7.50;6.77;;;21.90;98.70;;;;;;4986843;28;20447;-86
2022/07/22 09:38:06;;;;;;;7.70;6.90;;;21.90;98.20;;;;;;4973550;28;20478;-86
2022/07/22 09:40:38;;;;;;;9.33;8.03;;;21.60;98.70;;;;;;4976295;28;20488;-86
2022/07/22 09:43:13;;;;;;;8.30;7.47;;;22.30;97.20;;;;;;4995296;28;20459;-85
2022/07/22 09:45:53;;;;;;;9.07;8.17;;;22.00;97.60;;;;;;4981702;28;20538;-86
2022/07/22 09:48:21;;;;;;;8.90;8.00;;;22.00;97.80;;;;;;4976833;28;20467;-87
2022/07/22 09:50:50;;;;;;;9.13;8.23;;;22.10;98.00;;;;;;4979766;28;20495;-87
2022/07/22 09:53:19;;;;;;;8.30;7.50;;;23.00;97.00;;;;;;4979840;28;20444;-86
2022/07/22 09:55:47;;;;;;;9.40;8.50;;;23.30;96.10;;;;;;4985961;28;20550;-87
2022/07/22 09:58:14;;;;;;;14.20;8.20;;;23.30;95.80;;;;;;4991403;28;20511;-89
2022/07/22 10:00:42;;;;;;;8.17;7.40;;;23.30;95.60;;;;;;4986645;28;20483;-87
2022/07/22 10:03:17;;;;;;;10.83;8.20;;;23.30;95.00;;;;;;5003901;28;20466;-87
2022/07/22 10:05:44;;;;;;;8.67;7.70;;;23.30;94.30;;;;;;4980838;28;20443;-87
2022/07/22 10:08:11;;;;;;;9.63;7.90;;;24.00;93.60;;;;;;4981630;28;20480;-86
2022/07/22 10:10:39;;;;;;;9.50;8.60;;;24.00;92.30;;;;;;4974063;28;20460;-87
2022/07/22 10:13:08;;;;;;;8.20;7.40;;;24.20;92.60;;;;;;5000696;28;20447;-86
2022/07/22 10:15:37;;;;;;;7.60;6.80;;;23.90;92.60;;;;;;4990735;28;20443;-86
2022/07/22 10:18:12;;;;;;;9.20;8.30;;;23.90;93.10;;;;;;5003205;28;20451;-86
2022/07/22 10:20:39;;;;;;;10.20;9.17;;;23.70;92.80;;;;;;4997754;28;20821;-88
2022/07/22 10:23:11;;;;;;;11.53;8.30;;;23.50;93.40;;;;;;5000599;28;20466;-86
2022/07/22 10:26:01;;;;;;;10.10;9.20;;;23.30;93.30;;;;;;4987402;28;20450;-88
2022/07/22 10:28:41;;;;;;;9.13;8.20;;;23.50;93.00;;;;;;4993174;28;20464;-86
2022/07/22 10:31:19;;;;;;;8.70;7.90;;;23.50;93.20;;;;;;5015408;28;20542;-86
2022/07/22 10:33:53;;;;;;;8.90;8.10;;;23.10;93.30;;;;;;4994515;28;20470;-85
2022/07/22 10:36:34;;;;;;;8.80;8.00;;;23.10;93.60;;;;;;4999245;28;20474;-87
2022/07/22 10:39:10;;;;;;;8.63;7.80;;;22.90;94.10;;;;;;4987252;28;20540;-86
2022/07/22 10:41:43;;;;;;;13.67;8.50;;;23.00;94.20;;;;;;5003184;28;20533;-85
2022/07/22 10:44:47;;;;;;;8.33;7.53;;;23.00;94.30;;;;;;4987530;28;20466;-87
2022/07/22 10:47:51;;;;;;;8.50;7.70;;;23.20;94.10;;;;;;4991593;28;20498;-87
2022/07/22 10:50:42;;;;;;;12.20;8.40;;;23.30;94.50;;;;;;4991650;28;20479;-86
2022/07/22 10:53:38;;;;;;;10.53;7.57;;;23.30;94.60;;;;;;5000494;28;20477;-87
2022/07/22 10:56:21;;;;;;;7.27;6.67;;;23.30;94.50;;;;;;4986340;28;20470;-88
2022/07/22 10:59:15;;;;;;;8.40;7.63;;;23.10;94.80;;;;;;4984429;28;20575;-87
2022/07/22 11:01:48;;;;;;;8.53;7.70;;;23.20;94.80;;;;;;4993759;28;20486;-86
2022/07/22 11:04:16;;;;;;;9.30;7.37;;;23.40;94.70;;;;;;4989594;28;20455;-84
2022/07/22 11:06:46;;;;;;;8.00;7.20;;;23.40;94.50;;;;;;5003887;28;20482;-85
2022/07/22 11:09:14;;;;;;;10.13;7.30;;;23.60;93.90;;;;;;5004425;28;20586;-88
2022/07/22 11:11:50;;;;;;;8.80;7.77;;;23.60;93.60;;;;;;5002547;28;20447;-86
2022/07/22 11:14:33;;;;;;;8.30;7.50;;;23.90;93.30;;;;;;4989085;28;20816;-85
2022/07/22 11:17:06;;;;;;;8.77;7.97;;;23.60;93.20;;;;;;4986616;28;20463;-85
2022/07/22 11:19:34;;;;;;;8.53;7.70;;;24.10;92.20;;;;;;4987624;28;20530;-87
2022/07/22 11:22:04;;;;;;;8.50;7.40;;;24.30;92.20;;;;;;4975245;28;20475;-87
2022/07/22 11:24:32;;;;;;;8.20;7.40;;;24.60;92.00;;;;;;4977412;28;20508;-87
2022/07/22 11:27:01;;;;;;;7.73;7.03;;;24.60;91.50;;;;;;4986975;28;20512;-86
2022/07/22 11:29:35;;;;;;;8.33;7.53;;;24.90;91.10;;;;;;5002122;28;20984;-88
2022/07/22 11:32:05;;;;;;;8.40;7.70;;;24.90;91.10;;;;;;4984808;28;20531;-86
2022/07/22 11:34:46;;;;;;;8.80;8.00;;;24.60;90.50;;;;;;4975541;28;20448;-87
2022/07/22 11:37:14;;;;;;;8.90;7.97;;;24.50;91.00;;;;;;4974987;28;20531;-86
2022/07/22 11:39:43;;;;;;;9.13;8.23;;;24.40;90.60;;;;;;4991672;28;20533;-85
2022/07/22 11:42:10;;;;;;;9.63;8.70;;;24.90;89.10;;;;;;5000781;28;20459;-91
2022/07/22 11:44:38;;;;;;;9.97;7.80;;;24.70;89.70;;;;;;4984430;28;20510;-90
2022/07/22 11:47:07;;;;;;;10.57;9.67;;;25.20;89.40;;;;;;5009006;28;20451;-89
2022/07/22 11:49:36;;;;;;;9.57;8.60;;;25.10;89.30;;;;;;5005352;28;20507;-88
2022/07/22 11:52:12;;;;;;;9.87;9.03;;;25.10;88.50;;;;;;4990556;28;20515;-87
2022/07/22 11:54:41;;;;;;;9.80;8.90;;;24.90;89.10;;;;;;4981186;28;20447;-88
2022/07/22 11:57:09;;;;;;;10.30;9.40;;;24.80;89.90;;;;;;5005395;28;20439;-88
2022/07/22 11:59:35;;;;;;;10.37;9.47;;;25.10;88.40;;;;;;5006713;28;20479;-85
2022/07/22 12:02:06;;;;;;;8.67;7.97;;;25.00;88.60;;;;;;4977593;28;20452;-85
2022/07/22 12:04:38;;;;;;;9.07;8.37;;;25.20;88.40;;;;;;4971027;28;20467;-87
2022/07/22 12:07:06;;;;;;;9.13;8.33;;;25.10;88.40;;;;;;4996805;28;20511;-86
2022/07/22 12:09:35;;;;;;;10.63;9.53;;;25.20;89.50;;;;;;5003820;28;20590;-87
2022/07/22 12:12:03;;;;;;;10.10;9.20;;;25.10;88.60;;;;;;4989419;28;20454;-87
2022/07/22 12:14:33;;;;;;;9.40;8.47;;;25.30;88.70;;;;;;4995068;28;20466;-87
2022/07/22 12:17:05;;;;;;;10.07;9.13;;;25.40;86.90;;;;;;4973842;28;20448;-87
2022/07/22 12:19:34;;;;;;;10.33;9.43;;;26.20;83.50;;;;;;4985306;28;20480;-86
2022/07/22 12:22:04;;;;;;;9.40;8.67;;;26.30;82.80;;;;;;5002381;28;20462;-87
2022/07/22 12:24:37;;;;;;;10.40;9.40;;;26.40;81.60;;;;;;4997402;28;20466;-86
2022/07/22 12:27:10;;;;;;;10.23;9.33;;;26.30;82.20;;;;;;4986643;28;20459;-88
2022/07/22 12:29:37;;;;;;;11.60;9.23;;;26.40;82.00;;;;;;5003657;28;20506;-85
2022/07/22 12:32:08;;;;;;;10.40;9.60;;;26.60;80.10;;;;;;4998351;28;20550;-87
2022/07/22 12:34:41;;;;;;;9.77;8.97;;;26.10;81.90;;;;;;4979485;28;20632;-85
2022/07/22 12:37:19;;;;;;;11.63;10.63;;;26.00;81.30;;;;;;4972153;28;20876;-86
2022/07/22 12:40:07;;;;;;;12.77;9.90;;;25.90;80.90;;;;;;4977189;28;20489;-86
2022/07/22 12:42:37;;;;;;;11.43;10.43;;;25.50;84.50;;;;;;4989301;28;20506;-85
2022/07/22 12:45:09;;;;;;;11.47;9.33;;;25.50;83.80;;;;;;4972692;28;20486;-84
2022/07/22 12:47:43;;;;;;;10.20;9.23;;;25.80;83.00;;;;;;4980121;28;20466;-84
2022/07/22 12:50:20;;;;;;;10.20;9.30;;;25.80;83.20;;;;;;4967152;28;20483;-84
2022/07/22 12:52:48;;;;;;;12.63;11.40;;;25.90;82.90;;;;;;4975301;28;20866;-84
2022/07/22 12:56:01;;;;;;;10.90;10.00;;;25.90;82.80;;;;;;4997782;28;20478;-84
2022/07/22 12:58:30;;;;;;;9.37;8.60;;;26.00;81.80;;;;;;4973858;28;20517;-85
2022/07/22 13:01:00;;;;;;;9.93;9.00;;;26.80;79.00;;;;;;4972647;28;20486;-84
2022/07/22 13:03:38;;;;;;;9.23;8.40;;;26.40;80.40;;;;;;4975762;28;20456;-88
2022/07/22 13:06:10;;;;;;;10.30;9.40;;;26.20;82.10;;;;;;4982146;28;20450;-84
2022/07/22 13:08:42;;;;;;;9.83;8.93;;;26.70;80.40;;;;;;4991244;28;20482;-86